createdAt,value
2018-05-06T00:00:43.900Z,65.60
2018-05-06T00:03:11.458Z,65.00
2018-05-06T00:05:38.989Z,65.10
2018-05-06T00:08:06.531Z,65.20
2018-05-06T00:10:34.080Z,65.20
2018-05-06T00:13:01.571Z,65.30
2018-05-06T00:15:29.107Z,65.70
2018-05-06T00:17:56.699Z,66.20
2018-05-06T00:20:24.222Z,66.40
2018-05-06T00:22:51.730Z,66.40
2018-05-06T00:25:19.275Z,66.40
2018-05-06T00:27:46.769Z,66.30
2018-05-06T00:30:14.403Z,66.70
2018-05-06T00:32:41.899Z,66.90
2018-05-06T00:35:09.446Z,67.20
2018-05-06T00:37:36.931Z,66.80
2018-05-06T00:40:04.458Z,67.70
2018-05-06T00:42:31.970Z,67.00
2018-05-06T00:45:00.281Z,67.70
2018-05-06T00:47:27.774Z,67.60
2018-05-06T00:49:55.312Z,68.00
2018-05-06T00:52:22.801Z,68.00
2018-05-06T00:54:50.301Z,68.20
2018-05-06T00:57:17.854Z,68.40
2018-05-06T00:59:45.394Z,68.00
2018-05-06T01:02:12.891Z,67.80
2018-05-06T01:04:40.426Z,68.90
2018-05-06T01:07:07.939Z,68.80
2018-05-06T01:09:35.462Z,68.10
2018-05-06T01:12:02.967Z,68.80
2018-05-06T01:14:30.741Z,68.80
2018-05-06T01:16:58.228Z,69.40
2018-05-06T01:19:26.519Z,70.40
2018-05-06T01:21:54.019Z,70.30
2018-05-06T01:24:21.554Z,69.60
2018-05-06T01:26:49.046Z,70.30
2018-05-06T01:29:16.577Z,69.70
2018-05-06T01:31:44.067Z,69.90
2018-05-06T01:34:11.587Z,70.30
2018-05-06T01:36:39.095Z,70.30
2018-05-06T01:39:07.247Z,70.30
2018-05-06T01:41:34.746Z,69.50
2018-05-06T01:44:02.267Z,69.70
2018-05-06T01:46:29.755Z,69.20
2018-05-06T01:48:58.042Z,70.20
2018-05-06T01:51:25.759Z,70.10
2018-05-06T01:53:53.466Z,70.10
2018-05-06T01:56:20.967Z,69.80
2018-05-06T01:58:48.592Z,70.10
2018-05-06T02:01:16.127Z,69.70
2018-05-06T02:03:44.463Z,70.20
2018-05-06T02:06:11.975Z,70.10
2018-05-06T02:08:39.465Z,70.10
2018-05-06T02:11:07.002Z,70.10
2018-05-06T02:13:35.334Z,70.90
2018-05-06T02:16:02.870Z,70.20
2018-05-06T02:18:30.369Z,70.00
2018-05-06T02:20:57.914Z,70.00
2018-05-06T02:23:25.434Z,70.70
2018-05-06T02:25:52.956Z,70.40
2018-05-06T02:28:21.211Z,70.80
2018-05-06T02:30:48.782Z,70.70
2018-05-06T02:33:17.780Z,70.90
2018-05-06T02:35:45.323Z,70.80
2018-05-06T02:38:12.827Z,70.50
2018-05-06T02:40:40.362Z,70.60
2018-05-06T02:43:08.630Z,71.10
2018-05-06T02:45:36.167Z,71.00
2018-05-06T02:48:03.655Z,70.20
2018-05-06T02:50:32.070Z,71.20
2018-05-06T02:52:59.617Z,71.40
2018-05-06T02:55:27.154Z,71.70
2018-05-06T02:57:55.492Z,71.20
2018-05-06T03:00:23.026Z,71.10
2018-05-06T03:02:50.525Z,71.40
2018-05-06T03:05:18.063Z,71.90
2018-05-06T03:07:45.554Z,71.20
2018-05-06T03:10:13.854Z,71.40
2018-05-06T03:12:41.470Z,71.40
2018-05-06T03:15:08.996Z,71.40
2018-05-06T03:17:36.494Z,71.70
2018-05-06T03:20:04.034Z,71.50
2018-05-06T03:22:31.657Z,72.00
2018-05-06T03:24:59.214Z,71.80
2018-05-06T03:27:26.711Z,72.10
2018-05-06T03:29:54.398Z,72.50
2018-05-06T03:32:21.982Z,73.00
2018-05-06T03:34:49.599Z,73.10
2018-05-06T03:37:17.098Z,73.80
2018-05-06T03:39:44.650Z,73.20
2018-05-06T03:42:13.206Z,74.10
2018-05-06T03:44:40.771Z,73.90
2018-05-06T03:47:08.864Z,73.20
2018-05-06T03:49:37.130Z,72.20
2018-05-06T03:52:04.698Z,72.10
2018-05-06T03:54:32.407Z,73.40
2018-05-06T03:57:11.739Z,73.50
2018-05-06T03:59:51.250Z,73.50
2018-05-06T04:05:16.607Z,74.00
2018-05-06T04:07:44.106Z,73.50
2018-05-06T04:10:11.631Z,72.60
2018-05-06T04:12:39.128Z,72.50
2018-05-06T04:15:06.682Z,72.50
2018-05-06T04:17:34.171Z,72.40
2018-05-06T04:20:01.667Z,72.30
2018-05-06T04:22:29.203Z,72.30
2018-05-06T04:24:56.691Z,72.10
2018-05-06T04:27:24.243Z,72.20
2018-05-06T04:29:51.731Z,71.60
2018-05-06T04:32:19.282Z,71.50
2018-05-06T04:34:46.774Z,71.20
2018-05-06T04:37:14.323Z,71.10
2018-05-06T04:39:41.823Z,70.40
2018-05-06T04:42:09.403Z,70.30
2018-05-06T04:44:36.881Z,70.30
2018-05-06T04:47:04.374Z,70.30
2018-05-06T04:49:33.062Z,69.80
2018-05-06T04:52:01.373Z,69.60
2018-05-06T04:54:28.864Z,69.50
2018-05-06T04:56:56.363Z,69.30
2018-05-06T04:59:23.894Z,69.10
2018-05-06T05:01:52.169Z,69.40
2018-05-06T05:04:19.699Z,68.60
2018-05-06T05:06:47.190Z,67.60
2018-05-06T05:09:14.722Z,67.50
2018-05-06T05:11:42.216Z,67.50
2018-05-06T05:14:10.513Z,67.70
2018-05-06T05:16:38.001Z,67.70
2018-05-06T05:19:05.535Z,67.70
2018-05-06T05:21:33.035Z,67.80
2018-05-06T05:24:00.574Z,67.70
2018-05-06T05:26:28.123Z,67.30
2018-05-06T05:28:55.651Z,67.20
2018-05-06T05:31:23.958Z,67.30
2018-05-06T05:33:51.448Z,67.30
2018-05-06T05:36:18.994Z,67.30
2018-05-06T05:38:46.479Z,67.00
2018-05-06T05:41:13.971Z,66.90
2018-05-06T05:43:41.516Z,66.30
2018-05-06T05:46:09.054Z,65.90
2018-05-06T05:48:36.604Z,66.20
2018-05-06T05:51:04.148Z,66.80
2018-05-06T05:53:31.651Z,65.90
2018-05-06T05:55:59.955Z,65.50
2018-05-06T05:58:27.522Z,65.40
2018-05-06T06:00:55.101Z,65.30
2018-05-06T06:03:22.610Z,65.80
2018-05-06T06:05:50.168Z,65.60
2018-05-06T06:08:18.446Z,65.50
2018-05-06T06:10:46.746Z,65.30
2018-05-06T06:13:14.266Z,65.20
2018-05-06T06:15:41.764Z,65.20
2018-05-06T06:18:09.293Z,64.80
2018-05-06T06:20:37.571Z,64.50
2018-05-06T06:23:05.862Z,64.50
2018-05-06T06:25:33.379Z,64.40
2018-05-06T06:28:00.926Z,64.50
2018-05-06T06:30:28.415Z,64.60
2018-05-06T06:32:56.736Z,64.70
2018-05-06T06:35:24.227Z,64.60
2018-05-06T06:37:51.759Z,64.10
2018-05-06T06:40:19.258Z,63.80
2018-05-06T06:42:46.812Z,63.80
2018-05-06T06:45:14.311Z,63.20
2018-05-06T06:47:41.849Z,63.50
2018-05-06T06:50:10.122Z,62.30
2018-05-06T06:52:38.439Z,62.40
2018-05-06T06:55:05.940Z,62.30
2018-05-06T06:57:33.490Z,62.40
2018-05-06T07:00:01.034Z,62.60
2018-05-06T07:02:28.563Z,62.40
2018-05-06T07:04:56.050Z,62.20
2018-05-06T07:07:23.554Z,62.60
2018-05-06T07:09:51.876Z,62.90
2018-05-06T07:12:19.375Z,62.80
2018-05-06T07:14:46.925Z,62.90
2018-05-06T07:17:14.432Z,62.60
2018-05-06T07:19:42.005Z,63.00
2018-05-06T07:22:09.553Z,62.20
2018-05-06T07:24:37.046Z,63.00
2018-05-06T07:27:04.586Z,63.00
2018-05-06T07:29:32.711Z,63.00
2018-05-06T07:32:01.009Z,62.80
2018-05-06T07:34:28.530Z,62.80
2018-05-06T07:36:56.083Z,62.80
2018-05-06T07:39:23.596Z,61.80
2018-05-06T07:41:51.105Z,62.20
2018-05-06T07:44:18.646Z,62.50
2018-05-06T07:46:46.185Z,62.10
2018-05-06T07:49:13.735Z,62.20
2018-05-06T07:51:41.351Z,61.80
2018-05-06T07:54:08.893Z,61.90
2018-05-06T07:56:36.405Z,61.90
2018-05-06T07:59:03.948Z,61.60
2018-05-06T08:01:31.455Z,61.50
2018-05-06T08:03:58.987Z,61.40
2018-05-06T08:06:26.510Z,61.50
2018-05-06T08:08:54.078Z,61.20
2018-05-06T08:11:22.397Z,60.00
2018-05-06T08:13:49.903Z,60.00
2018-05-06T08:16:17.656Z,60.30
2018-05-06T08:18:45.149Z,60.00
2018-05-06T08:21:12.734Z,59.60
2018-05-06T08:23:40.234Z,58.90
2018-05-06T08:26:08.581Z,60.00
2018-05-06T08:28:36.183Z,59.00
2018-05-06T08:31:04.051Z,59.60
2018-05-06T08:33:31.702Z,57.00
2018-05-06T08:35:59.289Z,57.20
2018-05-06T08:38:28.490Z,55.50
2018-05-06T08:40:55.987Z,55.40
2018-05-06T08:43:23.628Z,53.30
2018-05-06T08:45:51.219Z,53.60
2018-05-06T08:48:19.347Z,53.70
2018-05-06T08:50:46.868Z,53.00
2018-05-06T08:53:14.407Z,52.90
2018-05-06T08:55:41.894Z,52.60
2018-05-06T08:58:09.471Z,52.60
2018-05-06T09:00:37.764Z,52.00
2018-05-06T09:03:05.318Z,51.90
2018-05-06T09:05:32.807Z,52.00
2018-05-06T09:08:00.330Z,52.10
2018-05-06T09:10:27.860Z,52.50
2018-05-06T09:12:55.350Z,51.00
2018-05-06T09:15:22.880Z,51.10
2018-05-06T09:17:51.151Z,52.10
2018-05-06T09:20:19.448Z,51.30
2018-05-06T09:22:47.711Z,51.30
2018-05-06T09:25:16.017Z,51.50
2018-05-06T09:27:43.527Z,51.40
2018-05-06T09:30:11.078Z,52.10
2018-05-06T09:32:38.577Z,51.70
2018-05-06T09:35:06.893Z,51.70
2018-05-06T09:37:34.395Z,51.70
2018-05-06T09:40:01.937Z,52.10
2018-05-06T09:42:29.571Z,51.70
2018-05-06T09:44:57.114Z,51.70
2018-05-06T09:47:24.620Z,51.80
2018-05-06T09:49:52.159Z,51.80
2018-05-06T09:52:19.653Z,52.00
2018-05-06T09:54:47.177Z,50.90
2018-05-06T09:57:14.672Z,51.10
2018-05-06T09:59:42.214Z,50.70
2018-05-06T10:02:10.492Z,51.70
2018-05-06T10:04:38.025Z,51.70
2018-05-06T10:07:05.521Z,51.40
2018-05-06T10:09:34.046Z,50.60
2018-05-06T10:12:01.586Z,50.70
2018-05-06T10:14:29.837Z,50.40
2018-05-06T10:16:58.154Z,50.90
2018-05-06T10:19:25.654Z,51.60
2018-05-06T10:21:53.214Z,51.20
2018-05-06T10:24:20.736Z,51.60
2018-05-06T10:26:48.297Z,51.60
2018-05-06T10:29:15.814Z,51.50
2018-05-06T10:31:44.139Z,51.50
2018-05-06T10:34:11.750Z,51.50
2018-05-06T10:36:40.084Z,51.60
2018-05-06T10:39:08.531Z,51.40
2018-05-06T10:41:36.095Z,51.40
2018-05-06T10:44:03.690Z,51.40
2018-05-06T10:46:31.943Z,51.40
2018-05-06T10:48:59.441Z,51.40
2018-05-06T10:51:27.127Z,52.00
2018-05-06T10:53:54.667Z,51.30
2018-05-06T10:56:22.214Z,51.30
2018-05-06T10:58:49.719Z,52.10
2018-05-06T11:01:17.597Z,51.30
2018-05-06T11:03:45.351Z,52.00
2018-05-06T11:06:13.627Z,52.40
2018-05-06T11:08:41.940Z,52.10
2018-05-06T11:11:09.442Z,52.10
2018-05-06T11:13:36.983Z,51.90
2018-05-06T11:16:04.575Z,51.80
2018-05-06T11:18:32.163Z,52.70
2018-05-06T11:20:59.725Z,52.80
2018-05-06T11:23:27.283Z,52.60
2018-05-06T11:25:55.000Z,52.70
2018-05-06T11:28:22.727Z,53.00
2018-05-06T11:30:50.234Z,53.20
2018-05-06T11:33:18.633Z,53.40
2018-05-06T11:35:46.246Z,53.50
2018-05-06T11:38:13.805Z,53.30
2018-05-06T11:40:41.807Z,53.80
2018-05-06T11:43:09.358Z,53.90
2018-05-06T11:45:37.641Z,54.00
2018-05-06T11:48:05.364Z,54.00
2018-05-06T11:50:32.836Z,53.80
2018-05-06T11:53:01.894Z,53.70
2018-05-06T11:55:29.485Z,53.70
2018-05-06T11:57:57.033Z,54.30
2018-05-06T12:00:24.545Z,54.10
2018-05-06T12:02:52.125Z,54.40
2018-05-06T12:05:19.685Z,54.70
2018-05-06T12:07:47.187Z,55.10
2018-05-06T12:10:15.506Z,56.00
2018-05-06T12:12:42.998Z,55.10
2018-05-06T12:15:10.520Z,55.40
2018-05-06T12:17:38.028Z,54.30
2018-05-06T12:20:05.616Z,54.60
2018-05-06T12:22:33.129Z,55.30
2018-05-06T12:25:00.749Z,55.50
2018-05-06T12:27:28.191Z,55.40
2018-05-06T12:29:55.730Z,55.30
2018-05-06T12:32:23.287Z,54.80
2018-05-06T12:34:50.852Z,54.90
2018-05-06T12:37:18.351Z,55.90
2018-05-06T12:39:45.898Z,55.40
2018-05-06T12:42:14.863Z,55.10
2018-05-06T12:44:42.481Z,54.90
2018-05-06T12:47:10.211Z,54.90
2018-05-06T12:49:38.510Z,55.00
2018-05-06T12:52:06.240Z,55.00
2018-05-06T12:54:33.792Z,54.30
2018-05-06T12:57:02.060Z,53.00
2018-05-06T12:59:30.397Z,52.00
2018-05-06T13:01:59.068Z,52.50
2018-05-06T13:04:26.611Z,50.90
2018-05-06T13:06:54.129Z,49.60
2018-05-06T13:09:21.710Z,47.30
2018-05-06T13:11:49.283Z,46.70
2018-05-06T13:14:17.942Z,43.40
2018-05-06T13:16:45.482Z,43.50
2018-05-06T13:19:13.047Z,43.90
2018-05-06T13:21:41.574Z,42.30
2018-05-06T13:24:09.912Z,41.90
2018-05-06T13:26:38.199Z,39.50
2018-05-06T13:29:06.494Z,38.10
2018-05-06T13:31:34.003Z,38.00
2018-05-06T13:34:01.658Z,38.50
2018-05-06T13:36:29.150Z,39.00
2018-05-06T13:38:56.708Z,39.20
2018-05-06T13:41:24.530Z,35.20
2018-05-06T13:43:52.111Z,36.00
2018-05-06T13:46:20.365Z,33.10
2018-05-06T13:48:47.899Z,33.10
2018-05-06T13:51:16.174Z,33.20
2018-05-06T13:53:43.709Z,33.20
2018-05-06T13:56:11.229Z,32.00
2018-05-06T13:58:38.777Z,31.90
2018-05-06T14:01:06.323Z,30.10
2018-05-06T14:03:34.892Z,30.80
2018-05-06T14:06:02.410Z,30.80
2018-05-06T14:08:30.045Z,30.30
2018-05-06T14:10:57.557Z,29.90
2018-05-06T14:13:25.105Z,28.40
2018-05-06T14:15:52.607Z,28.50
2018-05-06T14:18:20.175Z,28.60
2018-05-06T14:20:47.697Z,28.60
2018-05-06T14:23:15.230Z,28.10
2018-05-06T14:25:42.727Z,28.90
2018-05-06T14:28:10.284Z,28.90
2018-05-06T14:30:38.590Z,31.40
2018-05-06T14:33:06.235Z,31.30
2018-05-06T14:35:34.548Z,35.90
2018-05-06T14:38:02.072Z,35.80
2018-05-06T14:40:29.606Z,36.40
2018-05-06T14:42:57.986Z,35.40
2018-05-06T14:45:27.044Z,35.40
2018-05-06T14:48:06.275Z,35.50
2018-05-06T14:50:33.798Z,36.40
2018-05-06T14:53:02.244Z,37.50
2018-05-06T14:55:29.779Z,37.40
2018-05-06T14:57:57.266Z,38.60
2018-05-06T15:00:24.806Z,39.00
2018-05-06T15:02:52.319Z,38.70
2018-05-06T15:05:19.860Z,39.00
2018-05-06T15:07:47.376Z,39.40
2018-05-06T15:10:15.074Z,40.40
2018-05-06T15:12:43.355Z,41.00
2018-05-06T15:15:11.968Z,38.10
2018-05-06T15:17:39.498Z,37.90
2018-05-06T15:20:07.798Z,33.80
2018-05-06T15:22:35.290Z,33.80
2018-05-06T15:25:02.839Z,32.20
2018-05-06T15:27:30.346Z,30.40
2018-05-06T15:29:57.889Z,28.60
2018-05-06T15:32:25.406Z,26.70
2018-05-06T15:34:53.888Z,27.20
2018-05-06T15:37:21.468Z,26.10
2018-05-06T15:39:48.989Z,25.20
2018-05-06T15:42:16.763Z,25.00
2018-05-06T15:44:44.224Z,23.00
2018-05-06T15:47:11.754Z,22.40
2018-05-06T15:49:39.270Z,22.60
2018-05-06T15:52:06.800Z,22.10
2018-05-06T15:54:34.290Z,22.00
2018-05-06T15:57:01.828Z,19.80
2018-05-06T15:59:29.358Z,20.00
2018-05-06T16:02:07.190Z,20.20
2018-05-06T16:04:34.816Z,19.30
2018-05-06T16:07:02.415Z,20.30
2018-05-06T16:09:29.921Z,20.30
2018-05-06T16:11:57.631Z,19.10
2018-05-06T16:14:25.240Z,18.30
2018-05-06T16:16:52.761Z,18.30
2018-05-06T16:19:20.271Z,18.40
2018-05-06T16:21:48.564Z,22.90
2018-05-06T16:24:16.071Z,22.80
2018-05-06T16:26:43.600Z,24.80
2018-05-06T16:29:11.140Z,25.30
2018-05-06T16:31:39.462Z,25.60
2018-05-06T16:34:06.989Z,27.20
2018-05-06T16:36:34.598Z,28.40
2018-05-06T16:39:02.928Z,30.50
2018-05-06T16:41:30.431Z,30.40
2018-05-06T16:43:57.966Z,32.00
2018-05-06T16:46:25.521Z,32.30
2018-05-06T16:48:53.098Z,34.10
2018-05-06T16:51:20.638Z,33.70
2018-05-06T16:53:48.129Z,33.40
2018-05-06T16:56:16.544Z,33.10
2018-05-06T16:58:44.058Z,34.50
2018-05-06T17:01:11.628Z,34.60
2018-05-06T17:03:40.654Z,35.30
2018-05-06T17:06:09.059Z,35.50
2018-05-06T17:08:36.563Z,35.50
2018-05-06T17:11:04.125Z,36.70
2018-05-06T17:13:31.756Z,36.50
2018-05-06T17:15:59.345Z,37.70
2018-05-06T17:18:26.858Z,36.80
2018-05-06T17:20:54.451Z,36.90
2018-05-06T17:23:21.966Z,37.70
2018-05-06T17:25:49.499Z,38.40
2018-05-06T17:28:17.766Z,38.50
2018-05-06T17:30:46.098Z,38.90
2018-05-06T17:33:13.587Z,38.90
2018-05-06T17:35:41.083Z,39.20
2018-05-06T17:38:08.621Z,39.90
2018-05-06T17:40:36.118Z,39.60
2018-05-06T17:43:03.675Z,39.80
2018-05-06T17:45:31.182Z,39.90
2018-05-06T17:47:58.743Z,40.20
2018-05-06T17:50:26.271Z,40.70
2018-05-06T17:52:54.195Z,40.90
2018-05-06T17:55:21.701Z,41.20
2018-05-06T17:57:49.274Z,41.40
2018-05-06T18:00:16.817Z,41.60
2018-05-06T18:02:44.382Z,41.60
2018-05-06T18:05:12.120Z,42.00
2018-05-06T18:07:39.626Z,42.30
2018-05-06T18:10:07.259Z,42.70
2018-05-06T18:12:34.831Z,43.20
2018-05-06T18:15:02.439Z,43.50
2018-05-06T18:17:29.943Z,44.00
2018-05-06T18:19:57.659Z,44.20
2018-05-06T18:22:25.342Z,44.10
2018-05-06T18:24:53.012Z,45.00
2018-05-06T18:27:20.561Z,44.00
2018-05-06T18:29:48.113Z,44.00
2018-05-06T18:32:15.638Z,43.90
2018-05-06T18:34:44.126Z,44.90
2018-05-06T18:37:12.426Z,45.20
2018-05-06T18:39:39.974Z,45.10
2018-05-06T18:42:08.253Z,45.60
2018-05-06T18:44:35.795Z,45.60
2018-05-06T18:47:03.362Z,45.90
2018-05-06T18:49:30.855Z,46.20
2018-05-06T18:51:58.368Z,46.40
2018-05-06T18:54:26.675Z,47.00
2018-05-06T18:56:54.229Z,46.60
2018-05-06T18:59:21.712Z,46.60
2018-05-06T19:01:49.275Z,46.70
2018-05-06T19:04:16.795Z,47.00
2018-05-06T19:06:44.330Z,47.20
2018-05-06T19:09:12.613Z,47.70
2018-05-06T19:11:40.231Z,47.60
2018-05-06T19:14:07.736Z,48.20
2018-05-06T19:16:35.534Z,47.90
2018-05-06T19:19:03.037Z,48.90
2018-05-06T19:21:30.595Z,48.50
2018-05-06T19:23:58.187Z,49.00
2018-05-06T19:26:26.553Z,49.30
2018-05-06T19:28:54.106Z,49.20
2018-05-06T19:31:21.694Z,49.20
2018-05-06T19:33:49.225Z,49.40
2018-05-06T19:36:17.049Z,49.80
2018-05-06T19:38:44.709Z,50.80
2018-05-06T19:41:12.295Z,51.00
2018-05-06T19:43:39.831Z,51.40
2018-05-06T19:46:07.351Z,52.20
2018-05-06T19:48:35.724Z,52.40
2018-05-06T19:51:03.240Z,52.40
2018-05-06T19:53:30.895Z,53.30
2018-05-06T19:55:58.412Z,54.30
2018-05-06T19:58:26.768Z,55.20
2018-05-06T20:00:54.288Z,55.20
2018-05-06T20:03:21.835Z,55.00
2018-05-06T20:05:49.350Z,54.90
2018-05-06T20:08:16.907Z,54.80
2018-05-06T20:10:45.185Z,55.20
2018-05-06T20:13:12.741Z,55.20
2018-05-06T20:15:40.274Z,55.80
2018-05-06T20:18:07.854Z,55.60
2018-05-06T20:20:35.365Z,56.60
2018-05-06T20:23:02.859Z,57.30
2018-05-06T20:25:30.398Z,57.30
2018-05-06T20:27:57.895Z,57.60
2018-05-06T20:30:26.958Z,58.10
2018-05-06T20:32:54.462Z,58.10
2018-05-06T20:35:22.002Z,58.70
2018-05-06T20:37:49.517Z,58.20
2018-05-06T20:40:17.077Z,59.00
2018-05-06T20:42:44.572Z,59.00
2018-05-06T20:45:12.114Z,59.60
2018-05-06T20:47:39.614Z,59.60
2018-05-06T20:50:07.162Z,59.70
2018-05-06T20:52:35.602Z,59.50
2018-05-06T20:55:03.155Z,59.50
2018-05-06T20:57:30.682Z,60.00
2018-05-06T20:59:59.137Z,60.30
2018-05-06T21:02:26.645Z,60.20
2018-05-06T21:04:54.172Z,60.20
2018-05-06T21:07:22.447Z,61.30
2018-05-06T21:09:50.863Z,61.70
2018-05-06T21:12:19.163Z,62.00
2018-05-06T21:14:46.709Z,61.90
2018-05-06T21:17:15.161Z,62.50
2018-05-06T21:19:42.734Z,62.50
2018-05-06T21:22:10.351Z,62.00
2018-05-06T21:24:37.886Z,61.70
2018-05-06T21:27:05.554Z,61.90
2018-05-06T21:29:33.049Z,62.20
2018-05-06T21:32:01.402Z,62.20
2018-05-06T21:34:29.025Z,62.10
2018-05-06T21:36:56.580Z,62.20
2018-05-06T21:39:24.102Z,61.90
2018-05-06T21:41:53.222Z,62.70
2018-05-06T21:44:20.748Z,62.50
2018-05-06T21:46:48.283Z,62.30
2018-05-06T21:49:15.849Z,62.40
2018-05-06T21:51:43.566Z,62.70
2018-05-06T21:54:12.397Z,62.90
2018-05-06T21:56:40.068Z,62.60
2018-05-06T21:59:07.600Z,63.20
2018-05-06T22:01:35.139Z,63.30
2018-05-06T22:04:03.130Z,63.90
2018-05-06T22:06:34.135Z,63.30
2018-05-06T22:09:04.528Z,64.10
2018-05-06T22:11:32.108Z,64.10
2018-05-06T22:13:59.615Z,64.00
2018-05-06T22:16:27.338Z,64.10
2018-05-06T22:18:55.824Z,64.00
2018-05-06T22:21:23.402Z,64.00
2018-05-06T22:23:50.911Z,64.00
2018-05-06T22:26:18.448Z,64.00
2018-05-06T22:28:45.965Z,64.00
2018-05-06T22:31:14.287Z,64.00
2018-05-06T22:33:41.771Z,63.90
2018-05-06T22:36:09.312Z,63.90
2018-05-06T22:38:36.806Z,63.80
2018-05-06T22:41:05.119Z,63.80
2018-05-06T22:43:36.261Z,63.70
2018-05-06T22:46:03.797Z,64.30
2018-05-06T22:48:34.048Z,64.90
2018-05-06T22:51:01.590Z,65.00
2018-05-06T22:53:29.078Z,64.90
2018-05-06T22:55:57.522Z,65.10
2018-05-06T22:58:25.758Z,65.30
2018-05-06T23:00:54.062Z,65.00
2018-05-06T23:03:21.609Z,65.70
2018-05-06T23:05:49.119Z,66.00
2018-05-06T23:08:16.642Z,66.40
2018-05-06T23:10:44.138Z,66.20
2018-05-06T23:13:11.727Z,65.80
2018-05-06T23:15:39.220Z,65.60
2018-05-06T23:18:06.755Z,66.20
2018-05-06T23:20:35.023Z,66.70
2018-05-06T23:23:03.335Z,66.00
2018-05-06T23:25:30.831Z,65.90
2018-05-06T23:27:58.363Z,66.80
2018-05-06T23:30:25.847Z,66.80
2018-05-06T23:32:53.468Z,67.00
2018-05-06T23:35:21.077Z,66.40
2018-05-06T23:37:48.627Z,67.10
2018-05-06T23:40:16.139Z,67.00
2018-05-06T23:42:44.448Z,67.70
2018-05-06T23:45:11.939Z,67.70
2018-05-06T23:47:39.435Z,67.30
2018-05-06T23:50:06.960Z,67.60
2018-05-06T23:52:35.247Z,67.60
2018-05-06T23:55:03.548Z,68.30
2018-05-06T23:57:31.047Z,68.10
2018-05-06T23:59:58.597Z,67.50
